createdAt,value
2019-05-07T00:01:57.565Z,7.10
2019-05-07T00:04:27.087Z,7.20
2019-05-07T00:06:56.676Z,7.20
2019-05-07T00:09:26.465Z,7.20
2019-05-07T00:11:56.016Z,7.20
2019-05-07T00:14:25.544Z,7.10
2019-05-07T00:16:55.092Z,7.10
2019-05-07T00:19:24.627Z,7.10
2019-05-07T00:21:54.181Z,7.00
2019-05-07T00:24:23.704Z,7.00
2019-05-07T00:26:53.428Z,7.00
2019-05-07T00:29:23.067Z,7.00
2019-05-07T00:31:52.700Z,6.90
2019-05-07T00:34:24.113Z,6.90
2019-05-07T00:36:55.376Z,6.90
2019-05-07T00:39:26.808Z,6.90
2019-05-07T00:41:58.213Z,7.00
2019-05-07T00:44:28.311Z,7.00
2019-05-07T00:46:57.864Z,7.00
2019-05-07T00:49:28.660Z,7.00
2019-05-07T00:51:58.200Z,6.90
2019-05-07T00:54:27.730Z,6.80
2019-05-07T00:56:57.272Z,6.90
2019-05-07T00:59:26.796Z,6.80
2019-05-07T01:01:56.452Z,6.80
2019-05-07T01:04:26.164Z,6.80
2019-05-07T01:06:55.687Z,6.80
2019-05-07T01:09:25.473Z,6.80
2019-05-07T01:11:55.280Z,6.80
2019-05-07T01:14:24.815Z,6.80
2019-05-07T01:16:54.496Z,6.80
2019-05-07T01:19:24.076Z,6.80
2019-05-07T01:21:53.613Z,6.80
2019-05-07T01:24:23.480Z,6.80
2019-05-07T01:26:53.250Z,6.80
2019-05-07T01:29:23.312Z,6.70
2019-05-07T01:32:00.468Z,6.80
2019-05-07T01:34:32.254Z,6.80
2019-05-07T01:37:02.763Z,6.90
2019-05-07T01:39:32.741Z,6.80
2019-05-07T01:42:02.731Z,6.80
2019-05-07T01:44:32.681Z,6.70
2019-05-07T01:47:02.650Z,6.70
2019-05-07T01:49:32.955Z,6.70
2019-05-07T01:52:02.873Z,6.80
2019-05-07T01:54:33.327Z,6.80
2019-05-07T01:57:03.320Z,6.80
2019-05-07T01:59:32.861Z,6.80
2019-05-07T02:02:22.706Z,6.90
2019-05-07T02:04:56.569Z,6.90
2019-05-07T02:07:33.945Z,7.00
2019-05-07T02:10:05.980Z,6.90
2019-05-07T02:12:37.139Z,6.90
2019-05-07T02:15:07.804Z,6.90
2019-05-07T02:17:38.007Z,6.80
2019-05-07T02:20:09.081Z,6.80
2019-05-07T02:22:38.790Z,6.70
2019-05-07T02:25:08.400Z,6.60
2019-05-07T02:27:38.015Z,6.60
2019-05-07T02:30:07.717Z,6.70
2019-05-07T02:32:37.349Z,6.70
2019-05-07T02:35:07.389Z,6.70
2019-05-07T02:37:48.309Z,6.70
2019-05-07T02:40:23.808Z,6.70
2019-05-07T02:42:54.091Z,6.60
2019-05-07T02:45:25.646Z,6.60
2019-05-07T02:47:55.344Z,6.50
2019-05-07T02:50:35.353Z,6.40
2019-05-07T02:53:13.346Z,6.30
2019-05-07T02:55:45.486Z,6.40
2019-05-07T02:58:15.321Z,6.40
2019-05-07T03:00:45.048Z,6.40
2019-05-07T03:03:14.674Z,6.40
2019-05-07T03:05:44.568Z,6.40
2019-05-07T03:08:14.407Z,6.40
2019-05-07T03:10:44.122Z,6.50
2019-05-07T03:13:14.087Z,6.50
2019-05-07T03:15:43.967Z,6.60
2019-05-07T03:18:18.347Z,6.60
2019-05-07T03:20:49.604Z,6.70
2019-05-07T03:23:22.828Z,6.50
2019-05-07T03:26:13.393Z,6.30
2019-05-07T03:28:48.836Z,6.10
2019-05-07T03:31:36.900Z,5.90
2019-05-07T03:34:08.333Z,5.80
2019-05-07T03:36:39.719Z,5.60
2019-05-07T03:39:09.420Z,5.60
2019-05-07T03:41:39.177Z,5.50
2019-05-07T03:44:13.336Z,5.40
2019-05-07T03:46:56.777Z,5.40
2019-05-07T03:49:34.254Z,5.40
2019-05-07T03:52:04.253Z,5.40
2019-05-07T03:54:34.456Z,5.30
2019-05-07T03:57:10.754Z,5.30
2019-05-07T03:59:36.045Z,5.20
2019-05-07T04:02:06.045Z,5.20
2019-05-07T04:04:35.784Z,5.20
2019-05-07T04:07:05.481Z,5.20
2019-05-07T04:09:35.237Z,5.20
2019-05-07T04:12:05.124Z,5.30
2019-05-07T04:14:34.901Z,5.40
2019-05-07T04:17:16.700Z,5.40
2019-05-07T04:19:36.191Z,5.40
2019-05-07T04:22:05.743Z,5.50
2019-05-07T04:24:48.845Z,5.50
2019-05-07T04:27:23.842Z,5.60
2019-05-07T04:29:53.656Z,5.80
2019-05-07T04:32:24.836Z,5.90
2019-05-07T04:34:56.011Z,6.00
2019-05-07T04:37:25.649Z,6.20
2019-05-07T04:39:55.199Z,6.40
2019-05-07T04:42:24.987Z,6.60
2019-05-07T04:44:54.600Z,6.80
2019-05-07T04:47:41.249Z,7.00
2019-05-07T04:49:55.645Z,7.30
2019-05-07T04:52:33.727Z,7.50
2019-05-07T04:55:05.780Z,8.10
2019-05-07T04:57:36.288Z,9.20
2019-05-07T05:00:08.426Z,10.30
2019-05-07T05:02:43.541Z,11.40
2019-05-07T05:05:14.312Z,12.30
2019-05-07T05:07:43.917Z,13.10
2019-05-07T05:10:13.704Z,13.90
2019-05-07T05:12:43.413Z,14.80
2019-05-07T05:15:13.776Z,15.50
2019-05-07T05:17:50.397Z,16.10
2019-05-07T05:20:16.130Z,16.80
2019-05-07T05:23:02.523Z,17.70
2019-05-07T05:25:43.175Z,18.20
2019-05-07T05:28:13.465Z,18.80
2019-05-07T05:30:52.783Z,18.60
2019-05-07T05:33:23.543Z,19.10
2019-05-07T05:35:53.402Z,20.10
2019-05-07T05:38:23.361Z,20.80
2019-05-07T05:40:53.088Z,21.80
2019-05-07T05:43:24.267Z,22.70
2019-05-07T05:45:55.625Z,23.30
2019-05-07T05:48:25.163Z,23.60
2019-05-07T05:51:12.584Z,23.40
2019-05-07T05:53:52.600Z,22.80
2019-05-07T05:56:33.312Z,23.10
2019-05-07T05:59:12.080Z,23.90
2019-05-07T06:01:52.891Z,24.30
2019-05-07T06:04:29.920Z,25.30
2019-05-07T06:07:16.232Z,25.80
2019-05-07T06:10:04.325Z,26.40
2019-05-07T06:12:38.156Z,27.20
2019-05-07T06:15:13.764Z,28.60
2019-05-07T06:18:02.773Z,29.70
2019-05-07T06:20:40.040Z,30.60
2019-05-07T06:23:17.298Z,30.70
2019-05-07T06:25:48.118Z,30.90
2019-05-07T06:28:17.639Z,30.20
2019-05-07T06:30:47.155Z,29.00
2019-05-07T06:33:17.120Z,29.70
2019-05-07T06:35:46.746Z,28.60
2019-05-07T06:38:16.576Z,26.50
2019-05-07T06:41:04.617Z,24.80
2019-05-07T06:43:42.225Z,24.30
2019-05-07T06:46:12.559Z,24.70
2019-05-07T06:48:45.969Z,24.70
2019-05-07T06:51:13.464Z,23.70
2019-05-07T06:53:42.995Z,22.30
2019-05-07T06:56:12.532Z,22.40
2019-05-07T06:58:43.704Z,22.70
2019-05-07T07:01:14.883Z,24.50
2019-05-07T07:04:02.810Z,26.10
2019-05-07T07:06:34.076Z,28.50
2019-05-07T07:09:09.617Z,28.60
2019-05-07T07:11:46.882Z,27.10
2019-05-07T07:14:16.548Z,25.00
2019-05-07T07:16:46.161Z,23.50
2019-05-07T07:19:15.689Z,22.90
2019-05-07T07:21:45.225Z,21.70
2019-05-07T07:24:14.919Z,20.40
2019-05-07T07:26:44.456Z,19.00
2019-05-07T07:29:15.623Z,20.00
2019-05-07T07:31:50.064Z,20.80
2019-05-07T07:34:19.662Z,23.40
2019-05-07T07:37:05.522Z,26.60
2019-05-07T07:39:23.540Z,27.00
2019-05-07T07:41:54.720Z,25.10
2019-05-07T07:44:24.181Z,24.00
2019-05-07T07:46:54.029Z,26.10
2019-05-07T07:49:23.553Z,28.90
2019-05-07T07:51:53.899Z,31.30
2019-05-07T07:54:23.716Z,31.20
2019-05-07T07:56:56.616Z,31.60
2019-05-07T07:59:27.860Z,32.30
2019-05-07T08:02:53.064Z,32.90
2019-05-07T08:05:22.588Z,33.70
2019-05-07T08:07:52.949Z,31.80
2019-05-07T08:10:22.708Z,29.20
2019-05-07T08:12:52.626Z,26.40
2019-05-07T08:15:24.615Z,24.00
2019-05-07T08:17:53.956Z,22.30
2019-05-07T08:20:24.924Z,20.70
2019-05-07T08:22:54.905Z,19.90
2019-05-07T08:25:26.185Z,19.00
2019-05-07T08:27:58.148Z,18.10
2019-05-07T08:30:28.838Z,17.60
2019-05-07T08:33:02.012Z,17.00
2019-05-07T08:35:33.039Z,16.70
2019-05-07T08:38:02.726Z,16.80
2019-05-07T08:40:32.699Z,17.00
2019-05-07T08:43:03.376Z,17.00
2019-05-07T08:45:52.494Z,16.80
2019-05-07T08:48:33.152Z,16.30
2019-05-07T08:51:02.809Z,15.80
2019-05-07T08:53:32.866Z,15.10
2019-05-07T08:56:03.212Z,14.60
2019-05-07T08:58:33.011Z,14.40
2019-05-07T09:01:03.157Z,14.70
2019-05-07T09:03:34.540Z,15.10
2019-05-07T09:06:04.068Z,15.30
2019-05-07T09:08:33.613Z,15.20
2019-05-07T09:11:03.164Z,15.40
2019-05-07T09:13:33.282Z,16.00
2019-05-07T09:16:03.545Z,16.60
2019-05-07T09:18:33.141Z,17.00
2019-05-07T09:21:02.663Z,17.20
2019-05-07T09:23:32.506Z,17.10
2019-05-07T09:26:02.757Z,17.40
2019-05-07T09:28:34.253Z,17.80
2019-05-07T09:31:08.672Z,18.10
2019-05-07T09:33:42.876Z,18.00
2019-05-07T09:36:14.184Z,17.60
2019-05-07T09:38:56.157Z,17.20
2019-05-07T09:41:27.959Z,17.00
2019-05-07T09:43:58.226Z,16.80
2019-05-07T09:46:27.933Z,16.40
2019-05-07T09:48:57.395Z,15.90
2019-05-07T09:51:27.072Z,15.20
2019-05-07T09:53:56.540Z,14.80
2019-05-07T09:56:26.288Z,14.30
2019-05-07T09:58:55.812Z,14.00
2019-05-07T10:01:25.573Z,13.70
2019-05-07T10:03:55.494Z,13.50
2019-05-07T10:06:25.019Z,13.50
2019-05-07T10:08:54.714Z,13.60
2019-05-07T10:11:40.952Z,14.00
2019-05-07T10:14:13.243Z,14.50
2019-05-07T10:16:53.714Z,14.60
2019-05-07T10:19:23.393Z,14.60
2019-05-07T10:21:53.104Z,14.40
2019-05-07T10:24:22.692Z,14.00
2019-05-07T10:26:53.069Z,13.70
2019-05-07T10:29:23.020Z,13.80
2019-05-07T10:31:52.834Z,14.00
2019-05-07T10:34:22.886Z,14.10
2019-05-07T10:36:52.644Z,14.30
2019-05-07T10:39:22.255Z,14.50
2019-05-07T10:41:51.714Z,15.00
2019-05-07T10:44:23.042Z,15.20
2019-05-07T10:47:12.104Z,15.00
2019-05-07T10:49:49.519Z,14.80
2019-05-07T10:52:19.193Z,14.80
2019-05-07T10:54:57.576Z,14.80
2019-05-07T10:57:21.938Z,15.10
2019-05-07T10:59:52.359Z,15.30
2019-05-07T11:02:23.967Z,15.50
2019-05-07T11:04:53.524Z,15.40
2019-05-07T11:07:23.548Z,14.90
2019-05-07T11:09:53.084Z,14.70
2019-05-07T11:12:23.013Z,14.70
2019-05-07T11:14:52.944Z,15.10
2019-05-07T11:17:26.760Z,15.60
2019-05-07T11:19:56.296Z,15.60
2019-05-07T11:22:25.821Z,15.40
2019-05-07T11:24:55.360Z,15.10
2019-05-07T11:27:24.885Z,14.80
2019-05-07T11:29:54.424Z,14.70
2019-05-07T11:32:23.949Z,14.80
2019-05-07T11:34:56.319Z,14.70
2019-05-07T11:37:24.721Z,14.60
2019-05-07T11:39:54.279Z,14.70
2019-05-07T11:42:25.784Z,15.10
2019-05-07T11:44:55.606Z,15.10
2019-05-07T11:47:26.944Z,15.20
2019-05-07T11:50:14.749Z,15.50
2019-05-07T11:52:52.631Z,15.50
2019-05-07T11:55:22.520Z,15.70
2019-05-07T11:57:53.435Z,16.10
2019-05-07T12:00:33.980Z,16.40
2019-05-07T12:03:03.608Z,16.90
2019-05-07T12:05:33.396Z,17.40
2019-05-07T12:08:03.512Z,17.80
2019-05-07T12:10:33.252Z,18.10
2019-05-07T12:13:02.786Z,18.20
2019-05-07T12:15:32.665Z,18.20
2019-05-07T12:18:03.002Z,17.90
2019-05-07T12:20:32.822Z,17.70
2019-05-07T12:23:02.969Z,17.70
2019-05-07T12:25:32.745Z,17.60
2019-05-07T12:28:02.723Z,17.40
2019-05-07T12:30:43.175Z,17.30
2019-05-07T12:33:19.980Z,17.50
2019-05-07T12:35:49.515Z,17.40
2019-05-07T12:38:19.048Z,17.50
2019-05-07T12:40:48.580Z,17.40
2019-05-07T12:43:18.273Z,17.50
2019-05-07T12:45:48.282Z,17.50
2019-05-07T12:48:17.732Z,17.80
2019-05-07T12:50:47.804Z,18.00
2019-05-07T12:53:35.301Z,18.10
2019-05-07T12:56:05.964Z,18.10
2019-05-07T12:58:35.732Z,18.10
2019-05-07T13:01:09.324Z,17.80
2019-05-07T13:03:49.592Z,17.40
2019-05-07T13:06:19.653Z,17.00
2019-05-07T13:08:49.564Z,16.80
2019-05-07T13:11:19.267Z,16.60
2019-05-07T13:13:48.801Z,16.40
2019-05-07T13:16:18.454Z,16.10
2019-05-07T13:18:48.055Z,15.80
2019-05-07T13:21:17.616Z,15.70
2019-05-07T13:23:47.304Z,15.70
2019-05-07T13:26:16.775Z,15.80
2019-05-07T13:28:46.307Z,15.90
2019-05-07T13:31:19.295Z,16.10
2019-05-07T13:33:52.330Z,16.30
2019-05-07T13:36:22.776Z,16.50
2019-05-07T13:38:54.241Z,16.50
2019-05-07T13:41:31.162Z,16.50
2019-05-07T13:44:05.091Z,16.30
2019-05-07T13:46:36.875Z,16.40
2019-05-07T13:49:06.823Z,16.10
2019-05-07T13:51:36.796Z,15.90
2019-05-07T13:54:06.755Z,15.80
2019-05-07T13:56:36.700Z,15.60
2019-05-07T13:59:06.343Z,15.70
2019-05-07T14:01:46.647Z,15.80
2019-05-07T14:04:16.570Z,16.00
2019-05-07T14:06:46.333Z,16.20
2019-05-07T14:09:17.767Z,16.20
2019-05-07T14:11:47.560Z,16.00
2019-05-07T14:14:17.360Z,15.70
2019-05-07T14:16:47.298Z,15.60
2019-05-07T14:19:17.086Z,15.30
2019-05-07T14:21:46.844Z,15.10
2019-05-07T14:24:17.025Z,14.80
2019-05-07T14:26:46.482Z,14.80
2019-05-07T14:29:16.011Z,14.80
2019-05-07T14:31:47.245Z,14.80
2019-05-07T14:34:24.401Z,14.60
2019-05-07T14:36:55.565Z,14.70
2019-05-07T14:39:25.107Z,15.00
2019-05-07T14:41:56.272Z,15.40
2019-05-07T14:44:27.579Z,15.70
2019-05-07T14:46:57.443Z,15.90
2019-05-07T14:49:27.280Z,15.70
2019-05-07T14:51:56.737Z,15.60
2019-05-07T14:54:26.456Z,15.40
2019-05-07T14:56:56.380Z,15.30
2019-05-07T14:59:26.023Z,15.20
2019-05-07T15:01:55.558Z,15.10
2019-05-07T15:04:25.251Z,15.10
2019-05-07T15:06:54.781Z,15.00
2019-05-07T15:09:24.392Z,14.80
2019-05-07T15:11:54.032Z,14.90
2019-05-07T15:14:23.576Z,14.80
2019-05-07T15:16:54.924Z,14.90
2019-05-07T15:19:24.606Z,14.80
2019-05-07T15:21:58.567Z,14.80
2019-05-07T15:24:28.228Z,14.60
2019-05-07T15:26:58.264Z,14.40
2019-05-07T15:29:27.799Z,14.20
2019-05-07T15:31:59.294Z,14.10
2019-05-07T15:34:28.840Z,14.00
2019-05-07T15:36:58.584Z,14.00
2019-05-07T15:39:28.221Z,14.00
2019-05-07T15:41:57.853Z,14.10
2019-05-07T15:44:27.539Z,14.20
2019-05-07T15:46:58.885Z,14.30
2019-05-07T15:49:28.852Z,14.30
2019-05-07T15:52:01.763Z,14.20
2019-05-07T15:54:32.563Z,14.00
2019-05-07T15:57:03.988Z,14.00
2019-05-07T15:59:33.558Z,13.90
2019-05-07T16:02:07.691Z,13.90
2019-05-07T16:04:37.804Z,13.80
2019-05-07T16:07:09.260Z,13.70
2019-05-07T16:09:44.502Z,13.70
2019-05-07T16:12:15.844Z,13.60
2019-05-07T16:14:45.393Z,13.50
2019-05-07T16:17:28.592Z,13.50
2019-05-07T16:19:58.125Z,13.60
2019-05-07T16:22:29.399Z,13.70
2019-05-07T16:24:59.159Z,13.90
2019-05-07T16:27:28.684Z,14.00
2019-05-07T16:29:58.367Z,14.00
2019-05-07T16:32:27.905Z,14.00
2019-05-07T16:34:57.532Z,14.00
2019-05-07T16:37:27.107Z,14.00
2019-05-07T16:39:56.676Z,13.90
2019-05-07T16:42:26.285Z,13.90
2019-05-07T16:44:55.816Z,13.90
2019-05-07T16:47:25.339Z,13.90
2019-05-07T16:49:55.051Z,13.90
2019-05-07T16:52:25.028Z,13.80
2019-05-07T16:54:54.743Z,13.70
2019-05-07T16:57:34.768Z,13.70
2019-05-07T17:00:08.024Z,13.80
2019-05-07T17:02:42.007Z,13.90
2019-05-07T17:05:13.600Z,14.00
2019-05-07T17:07:45.068Z,13.90
2019-05-07T17:10:16.516Z,13.90
2019-05-07T17:12:46.516Z,13.80
2019-05-07T17:15:17.600Z,13.70
2019-05-07T17:17:48.779Z,13.60
2019-05-07T17:20:18.547Z,13.60
2019-05-07T17:22:48.088Z,13.50
2019-05-07T17:25:35.848Z,13.40
2019-05-07T17:28:07.642Z,13.40
2019-05-07T17:30:37.915Z,13.20
2019-05-07T17:33:07.629Z,13.10
2019-05-07T17:35:37.308Z,13.00
2019-05-07T17:38:09.838Z,13.00
2019-05-07T17:40:38.160Z,13.00
2019-05-07T17:43:07.683Z,13.00
2019-05-07T17:45:37.412Z,12.90
2019-05-07T17:48:07.339Z,13.00
2019-05-07T17:50:38.641Z,13.00
2019-05-07T17:53:08.340Z,13.00
2019-05-07T17:55:38.264Z,13.10
2019-05-07T17:58:08.537Z,13.10
2019-05-07T18:00:38.796Z,13.10
2019-05-07T18:03:10.188Z,13.10
2019-05-07T18:05:39.971Z,13.10
2019-05-07T18:08:09.427Z,13.10
2019-05-07T18:10:39.245Z,13.10
2019-05-07T18:13:08.887Z,13.00
2019-05-07T18:15:38.480Z,12.90
2019-05-07T18:18:09.670Z,12.90
2019-05-07T18:20:39.595Z,12.90
2019-05-07T18:23:11.775Z,12.70
2019-05-07T18:25:42.695Z,12.60
2019-05-07T18:28:12.628Z,12.50
2019-05-07T18:30:42.348Z,12.40
2019-05-07T18:33:13.872Z,12.30
2019-05-07T18:35:45.634Z,11.90
2019-05-07T18:38:15.240Z,11.60
2019-05-07T18:40:44.763Z,11.40
2019-05-07T18:43:14.500Z,11.20
2019-05-07T18:45:44.092Z,11.00
2019-05-07T18:48:13.556Z,10.90
2019-05-07T18:50:43.216Z,10.70
2019-05-07T18:53:12.915Z,10.40
2019-05-07T18:55:42.611Z,10.40
2019-05-07T18:58:13.395Z,10.20
2019-05-07T19:00:51.942Z,10.20
2019-05-07T19:03:21.934Z,10.20
2019-05-07T19:05:52.029Z,10.20
2019-05-07T19:08:22.888Z,10.20
2019-05-07T19:10:52.720Z,10.10
2019-05-07T19:13:22.388Z,10.10
2019-05-07T19:15:53.018Z,10.00
2019-05-07T19:18:23.375Z,9.90
2019-05-07T19:20:53.130Z,9.90
2019-05-07T19:23:22.853Z,9.90
2019-05-07T19:25:52.495Z,10.00
2019-05-07T19:28:22.586Z,10.00
2019-05-07T19:30:52.982Z,10.00
2019-05-07T19:33:26.749Z,10.00
2019-05-07T19:35:54.041Z,10.00
2019-05-07T19:38:23.572Z,10.00
2019-05-07T19:40:53.321Z,10.00
2019-05-07T19:43:22.929Z,9.90
2019-05-07T19:45:52.523Z,9.90
2019-05-07T19:48:23.105Z,9.90
2019-05-07T19:50:53.165Z,9.80
2019-05-07T19:53:23.563Z,9.80
2019-05-07T19:56:11.176Z,9.80
2019-05-07T19:58:41.920Z,9.70
2019-05-07T20:01:13.476Z,9.60
2019-05-07T20:03:43.523Z,9.60
2019-05-07T20:06:13.408Z,9.60
2019-05-07T20:08:43.886Z,9.60
2019-05-07T20:11:33.156Z,9.60
2019-05-07T20:14:02.683Z,9.60
2019-05-07T20:16:33.033Z,9.60
2019-05-07T20:19:02.868Z,9.60
2019-05-07T20:21:32.779Z,9.60
2019-05-07T20:24:02.492Z,9.70
2019-05-07T20:26:32.706Z,9.70
2019-05-07T20:29:03.145Z,9.60
2019-05-07T20:31:33.746Z,9.60
2019-05-07T20:34:03.372Z,9.60
2019-05-07T20:36:32.978Z,9.60
2019-05-07T20:39:02.497Z,9.60
2019-05-07T20:41:33.009Z,9.50
2019-05-07T20:44:03.092Z,9.40
2019-05-07T20:46:33.207Z,9.40
2019-05-07T20:49:03.151Z,9.30
2019-05-07T20:51:32.775Z,9.30
2019-05-07T20:54:10.036Z,9.30
2019-05-07T20:56:41.950Z,9.20
2019-05-07T20:59:12.501Z,9.20
2019-05-07T21:01:42.149Z,9.20
2019-05-07T21:04:12.992Z,9.20
2019-05-07T21:06:43.320Z,9.10
2019-05-07T21:09:16.153Z,9.10
2019-05-07T21:11:45.754Z,9.10
2019-05-07T21:14:15.365Z,9.00
2019-05-07T21:16:44.818Z,9.00
2019-05-07T21:19:14.268Z,8.90
2019-05-07T21:21:43.795Z,8.90
2019-05-07T21:24:13.316Z,8.90
2019-05-07T21:26:42.869Z,8.80
2019-05-07T21:29:13.758Z,8.70
2019-05-07T21:31:43.655Z,8.60
2019-05-07T21:34:13.335Z,8.50
2019-05-07T21:36:43.424Z,8.40
2019-05-07T21:39:13.362Z,8.30
2019-05-07T21:41:43.007Z,8.30
2019-05-07T21:44:12.572Z,8.20
2019-05-07T21:46:42.736Z,8.10
2019-05-07T21:49:12.592Z,8.10
2019-05-07T21:51:42.128Z,8.10
2019-05-07T21:54:13.287Z,8.10
2019-05-07T21:56:54.549Z,8.00
2019-05-07T21:59:28.911Z,7.90
2019-05-07T22:02:03.165Z,7.80
2019-05-07T22:04:32.988Z,7.70
2019-05-07T22:07:03.032Z,7.70
2019-05-07T22:09:33.085Z,7.60
2019-05-07T22:12:03.709Z,7.60
2019-05-07T22:14:33.772Z,7.50
2019-05-07T22:17:03.471Z,7.50
2019-05-07T22:19:33.796Z,7.50
2019-05-07T22:22:03.504Z,7.40
2019-05-07T22:24:33.024Z,7.30
2019-05-07T22:27:04.273Z,7.30
2019-05-07T22:29:34.013Z,7.30
2019-05-07T22:32:07.864Z,7.20
2019-05-07T22:34:54.296Z,7.20
2019-05-07T22:37:23.828Z,7.20
2019-05-07T22:39:53.349Z,7.10
2019-05-07T22:42:22.881Z,7.10
2019-05-07T22:44:52.509Z,7.00
2019-05-07T22:47:22.973Z,7.00
2019-05-07T22:49:53.703Z,6.90
2019-05-07T22:52:23.698Z,6.90
2019-05-07T22:54:53.375Z,6.90
2019-05-07T22:57:24.756Z,6.90
2019-05-07T22:59:54.384Z,6.90
2019-05-07T23:02:23.991Z,6.80
2019-05-07T23:04:53.580Z,6.80
2019-05-07T23:07:23.389Z,6.60
2019-05-07T23:12:32.722Z,6.60
2019-05-07T23:15:02.924Z,6.60
2019-05-07T23:17:35.646Z,6.60
2019-05-07T23:20:06.681Z,6.60
2019-05-07T23:22:36.226Z,6.60
2019-05-07T23:25:06.412Z,6.60
2019-05-07T23:27:36.120Z,6.60
2019-05-07T23:30:06.580Z,6.60
2019-05-07T23:32:36.140Z,6.50
2019-05-07T23:35:05.732Z,6.50
2019-05-07T23:37:35.400Z,6.40
2019-05-07T23:40:14.596Z,6.40
2019-05-07T23:42:45.962Z,6.40
2019-05-07T23:45:15.648Z,6.30
2019-05-07T23:47:45.179Z,6.30
2019-05-07T23:50:14.710Z,6.20
2019-05-07T23:52:44.235Z,6.20
2019-05-07T23:55:13.996Z,6.20
2019-05-07T23:57:43.592Z,6.20
